LIBF/FOG METAR and TAF weather

Enter ICAO airport designator
Station Type Date Time Source
LIBF METAR 2020/08/05 15:50 UTC NOAA

LIBF 051550Z 34014KT 9999 FEW030 24/14 Q1009


Station Type Date Time Source
LIBF Decoded METAR 2020/08/05 15:50 UTC NOAA

Station name not available
Aug 05, 2020 - 11:50 AM EDT / 2020.08.05 1550 UTC
Wind: from the NNW (340 degrees) at 16 MPH (14 KT):0
Visibility: greater than 7 mile(s):0
Sky conditions: mostly clear
Temperature: 75 F (24 C)
Dew Point: 57 F (14 C)
Relative Humidity: 53%
Pressure (altimeter): 29.80 in. Hg (1009 hPa)
ob: LIBF 051550Z 34014KT 9999 FEW030 24/14 Q1009
cycle: 16

Station Type Date Time Source
LIBF TAF 2015/04/03 06:00 UTC NOAA

TAF LIBF 030500Z 0306/0406 35014KT 9999 FEW030

Example: see airport list